Impacts TAF Board INFO
FOR SITUATIONAL AWARENESS. NOT TO BE USED FOR FLIGHT PLANNING PURPOSES.
IDs:

KORD - Chicago/O'Hare Intl, IL, US

Issued at 1829 UTC 17 Feb 2018
Updated at 1939 UTC 17 Feb 2018
Potential Impact None Slight Moderate High
Time<<18/08Z 18/09Z 18/10Z 18/11Z 18/12Z 18/13Z 18/14Z 18/15Z 18/16Z 18/17Z 18/18Z 18/19Z 18/20Z>>
Type PRVL PRVL PRVL PRVL PRVL PRVL PRVL PRVL PRVL PRVL PRVL PRVL PRVL
VIS >6 >6 >6 >6 >6 >6 >6 >6 >6 >6 >6 >6 >6
CIG -- -- -- -- -- -- -- -- -- -- -- 250 250
Cover FEW FEW FEW SCT SCT SCT SCT SCT SCT SCT SCT BKN BKN
FltCat VFR VFR VFR VFR VFR VFR VFR VFR VFR VFR VFR VFR VFR
WX -- -- -- -- -- -- -- -- -- -- -- -- --
WDir 260 260 260 170 170 170 170 170 170 170 170 180 180
WSpd 7 7 7 8 8 8 8 8 11 11 11 15 15
WGst -- -- -- -- -- -- -- -- -- -- -- 24 24

Raw TAF
KORD 171829Z 1718/1824 21012KT P6SM OVC080
  FM172100 22010KT 1SM -SN SCT010 OVC020
  TEMPO 1721/1723 1/2SM SHSN BKN007 OVC014
  FM180000 27012KT P6SM SCT025
  FM180400 26007KT P6SM FEW250
  FM181100 17008KT P6SM FEW150 SCT250
  FM181600 17011KT P6SM SCT250
  FM181900 18015G24KT P6SM BKN250


METAR Board
Radar Display
Forecast Discussion

FOR SITUATIONAL AWARENESS. NOT TO BE USED FOR FLIGHT PLANNING PURPOSES.